A- A+ FrançaisEnglishEspañol中国

Services sur Internet Soldes sur Internet Des idées de cadeaux Météo Météo aéro

La météo à : Autours de vous Bordeaux-MerignacBiscarrosse-Parentis Tarbes-Lourdes-PyrénéesSt-Pierre-D'oleron

La météo aéronautique pour les pilotes, la préparation du vol avec les METAR (METeorological Aerodrome Report, message d'observation des conditions météorologiques pour l'aviation) et Les TAF (Terminal Aerodrome Forecast : message de prévision à court terme des conditions météorologiques pour l'aviation). Et les autres ressources comme les VAC (Visual Approch Chart) et les NOTAM (Notice To Airman) pour préprer les vols.

Aéroport Bellingham (USA) / OACI KBLI / IATA BLI

L'altitude de l'aéroport Bellingham est de 52 mètres. Il est situé à proximité de Bellingham (USA). La météo générale à 5 jours est disponible pour Marietta-Alderwood situé à 1.2 km.

METAR de l'aéroport Bellingham - KBLI

KBLI 211153Z AUTO 00000KT 10SM CLR 00/M03 A3003 RMK AO2 SLP178 I1000 I6000 T00001028 10022 21006 58010

Décodage du METAR de l'aéroport Bellingham (US)

METAR émis par KBLI le jeudi 21 novembre 2019 à 11:53 heure TU. C'est un METAR généré automatiquement, il y a 15 minutes.

La visibilité est de 16.1 km = 10 sm.

La température est de 0°C et le point rosée est de -3°C. Ce qui correspond à 80% d'humidité relative.

Le QNH est de 1017 hPa = 30.03 inHg

Vent de 0 kt = 0 km/h, orienté à 0°.

Pas de nuages.

RMK AO2 SLP178 I1000 I6000 T00001028 10022 21006 58010

TAF de l'aéroport Bellingham - KBLI

KBLI 211129Z 2112/2212 00000KT P6SM FEW250 FM211800 VRB03KT P6SM SKC

KBLI 211129Z 2112/2212 00000KT P6SM quelques nuages à 250 FM211800 VRB03KT P6SM ciel dégagé

Aéroport à proximité de Bellingham

Météo générale à 5 jours à Marietta-Alderwood (1.2 km)Aéroport Orcas Is (29 km)Aéroport Abbotsford (29 km)Aéroport Langley (35 km)Aéroport Boundary Bay (47 km)Aéroport Friday Harbour (47 km)Aéroport Pitt Meadows (49 km)

Vue aérienne de l'aéroport Bellingham

NOTAM de l'aéroport Bellingham

Les NOTAM sont fournis sans aucune garantie de leur actualité. Le pilote est le seul responsable de la vérification de sa validité avant de l'utiliser opérationnellement pour préparer un vol ou l'utiliser lors de sa navigation.

Pas de NOTAM

Sources des données